Kaskazi — WDI5884 — position and weather

sailwx.info

Track history (hours):
 
Tides and Currents Weather Stations Pressure Air Temp Water Temp Dewpoint Dewpoint Depression Visibility Wind Speed Wind Dir Waves Ship Positions

Kaskazi

Owner: Delly, Daniel P, Washington, DC. More information available from US FCC via Universal Licensing System.

Last reported at 2017-Oct-20 13:26 UTC. Time now 2017-Oct-20 16:17 UTC.
Position N 39°03' W 076°10'.

Length 10 m.

Type: Sailing vessel. MMSI: 367712980.

Date/timePositionNaut miles runAvg speedWind from/ knotsBaromVisibWave heightAir tempDewpointWater temp
2017-Oct-20 13:26N 39°03' W 076°10'0 0.0
2017-Oct-20 12:08N 39°03' W 076°10'0 0.0
2017-Oct-20 10:53N 39°03' W 076°10'0 0.0
2017-Oct-20 10:14N 39°03' W 076°10'0 0.0
2017-Oct-20 09:56N 39°03' W 076°10'0 0.0
2017-Oct-20 09:29N 39°03' W 076°10'0 0.0
2017-Oct-20 08:59N 39°03' W 076°10'0 0.0
2017-Oct-20 08:26N 39°03' W 076°10'0 0.0
2017-Oct-20 07:56N 39°03' W 076°10'0 0.0
2017-Oct-20 07:20N 39°03' W 076°10'0 0.0
2017-Oct-20 06:59N 39°03' W 076°10'0 0.0
2017-Oct-20 06:29N 39°03' W 076°10'0 0.0
2017-Oct-20 05:56N 39°03' W 076°10'0 0.0
2017-Oct-20 05:26N 39°03' W 076°10'0 0.0
2017-Oct-20 04:59N 39°03' W 076°10'0 0.0
2017-Oct-20 04:26N 39°03' W 076°10'0 0.0
2017-Oct-20 03:53N 39°03' W 076°10'0 0.0
2017-Oct-20 03:23N 39°03' W 076°10'0 0.0
2017-Oct-20 02:59N 39°03' W 076°10'0 0.0
2017-Oct-20 02:29N 39°03' W 076°10'0 0.0
2017-Oct-20 01:56N 39°03' W 076°10'18 1.9
2017-Oct-19 16:39N 39°21' W 076°10'1 8.5
2017-Oct-19 16:29N 39°22' W 076°09'3 5.3
2017-Oct-19 15:59N 39°23' W 076°05'4 7.8
2017-Oct-19 15:30N 39°23' W 076°00'3 6.5
2017-Oct-19 15:00N 39°22' W 075°56'2 1.2
2017-Oct-19 13:14N 39°22' W 075°53'0 0.0
2017-Oct-19 12:56N 39°22' W 075°53'0 0.0
2017-Oct-19 12:29N 39°22' W 075°53'0 0.0
2017-Oct-19 11:53N 39°22' W 075°53'0 0.0
2017-Oct-19 11:26N 39°22' W 075°53'0 0.0
2017-Oct-19 10:59N 39°22' W 075°53'0 0.0
2017-Oct-19 10:23N 39°22' W 075°53'0 0.0
2017-Oct-19 09:56N 39°22' W 075°53'0 0.0
2017-Oct-19 09:29N 39°22' W 075°53'0 0.0
2017-Oct-19 08:56N 39°22' W 075°53'0 0.0
2017-Oct-19 08:29N 39°22' W 075°53'0 0.0
2017-Oct-19 05:29N 39°22' W 075°53'0 0.0
2017-Oct-19 04:53N 39°22' W 075°53'0 0.0
2017-Oct-19 02:44N 39°22' W 075°53'0 0.0
2017-Oct-19 01:35N 39°22' W 075°53'0 0.0
2017-Oct-19 01:26N 39°22' W 075°53'0 0.0
2017-Oct-19 00:59N 39°22' W 075°53'0 0.0
2017-Oct-19 00:26N 39°22' W 075°53'0 0.0
2017-Oct-18 23:59N 39°22' W 075°53'0 0.0
2017-Oct-18 23:29N 39°22' W 075°53'0 0.0
2017-Oct-18 22:59N 39°22' W 075°53'0 0.0
2017-Oct-18 22:29N 39°22' W 075°53'0 0.0
2017-Oct-18 21:59N 39°22' W 075°53'0 0.0
2017-Oct-18 21:29N 39°22' W 075°53'0 0.0
2017-Oct-18 20:56N 39°22' W 075°53'0 0.0
2017-Oct-18 20:29N 39°22' W 075°53'0 0.0
2017-Oct-18 19:56N 39°22' W 075°53'0 0.0
2017-Oct-18 18:53N 39°22' W 075°53'0 0.0
2017-Oct-18 18:29N 39°22' W 075°53'0 0.0
2017-Oct-18 17:44N 39°22' W 075°53'0 0.0
2017-Oct-18 15:26N 39°22' W 075°53'0 0.0
2017-Oct-18 14:56N 39°22' W 075°53'0 0.0
2017-Oct-18 13:59N 39°22' W 075°53'0 0.0
2017-Oct-18 13:29N 39°22' W 075°53'0 0.0
2017-Oct-18 12:59N 39°22' W 075°53'0 0.0
2017-Oct-18 12:29N 39°22' W 075°53'0 0.0
2017-Oct-18 11:53N 39°22' W 075°53'0 0.0
2017-Oct-18 11:26N 39°22' W 075°53'0 0.0
2017-Oct-18 10:59N 39°22' W 075°53'0 0.0
2017-Oct-18 10:29N 39°22' W 075°53'0 0.0
2017-Oct-18 09:56N 39°22' W 075°53'0 0.0
2017-Oct-18 09:29N 39°22' W 075°53'0 0.0
2017-Oct-18 08:56N 39°22' W 075°53'0 0.0
2017-Oct-18 08:23N 39°22' W 075°53'0 0.0
2017-Oct-18 07:59N 39°22' W 075°53'0 0.0
2017-Oct-18 06:05N 39°22' W 075°53'0 0.0
2017-Oct-18 05:53N 39°22' W 075°53'0 0.0
2017-Oct-18 05:29N 39°22' W 075°53'0 0.0
2017-Oct-18 04:59N 39°22' W 075°53'0 0.0
2017-Oct-18 04:26N 39°22' W 075°53'0 0.0
2017-Oct-18 03:59N 39°22' W 075°53'0 0.0
2017-Oct-18 03:26N 39°22' W 075°53'0 0.0
2017-Oct-18 02:59N 39°22' W 075°53'0 0.0
2017-Oct-18 02:29N 39°22' W 075°53'0 0.0
2017-Oct-18 01:50N 39°22' W 075°53'0 0.0
2017-Oct-18 01:26N 39°22' W 075°53'0 0.0
2017-Oct-18 00:56N 39°22' W 075°53'0 0.0
2017-Oct-18 00:29N 39°22' W 075°53'0 0.0
2017-Oct-17 23:53N 39°22' W 075°53'0 0.0
2017-Oct-17 23:29N 39°22' W 075°53'0 0.0
2017-Oct-17 22:59N 39°22' W 075°53'0 0.0
2017-Oct-17 22:26N 39°22' W 075°53'0 0.0
2017-Oct-17 21:53N 39°22' W 075°53'0 0.0
2017-Oct-17 21:25N 39°22' W 075°53'2 4.7
2017-Oct-17 20:57N 39°22' W 075°56'3 5.8
2017-Oct-17 20:30N 39°23' W 075°60'25 7.3
2017-Oct-17 17:07N 39°11' W 076°28'1 7.4
2017-Oct-17 17:00N 39°12' W 076°29'4 7.4
2017-Oct-17 16:29N 39°14' W 076°32'3 6.8
2017-Oct-17 16:00N 39°17' W 076°35'1 1.9
2017-Oct-17 15:19N 39°17' W 076°37'1 3.6
2017-Oct-17 15:00N 39°17' W 076°35'0 0.5
2017-Oct-17 14:28N 39°17' W 076°35'0 0.0
2017-Oct-17 13:58N 39°17' W 076°35'0 0.0
2017-Oct-17 13:28N 39°17' W 076°35'0 0.0
2017-Oct-17 12:58N 39°17' W 076°35'0 0.0
2017-Oct-17 12:28N 39°17' W 076°35'0 0.0
2017-Oct-17 11:58N 39°17' W 076°35'0 0.0
2017-Oct-17 11:28N 39°17' W 076°35'0 0.0
2017-Oct-17 10:55N 39°17' W 076°35'0 0.0
2017-Oct-17 10:28N 39°17' W 076°35'0 0.0
2017-Oct-17 09:58N 39°17' W 076°35'0 0.0
2017-Oct-17 09:28N 39°17' W 076°35'0 0.0
2017-Oct-17 08:58N 39°17' W 076°35'0 0.0
2017-Oct-17 08:28N 39°17' W 076°35'0 0.0
2017-Oct-17 07:58N 39°17' W 076°35'0 0.0
2017-Oct-17 07:25N 39°17' W 076°35'0 0.0
2017-Oct-17 06:58N 39°17' W 076°35'0 0.0
2017-Oct-17 06:28N 39°17' W 076°35'0 0.0
2017-Oct-17 05:55N 39°17' W 076°35'0 0.0
2017-Oct-17 05:28N 39°17' W 076°35'0 0.0
2017-Oct-17 04:58N 39°17' W 076°35'0 0.0
2017-Oct-17 04:25N 39°17' W 076°35'0 0.0
2017-Oct-17 03:58N 39°17' W 076°35'0 0.0
2017-Oct-17 03:16N 39°17' W 076°35'0 0.0
2017-Oct-17 02:58N 39°17' W 076°35'0 0.0
2017-Oct-17 02:28N 39°17' W 076°35'0 0.0
2017-Oct-17 01:52N 39°17' W 076°35'0 0.0
2017-Oct-17 01:28N 39°17' W 076°35'0 0.0
2017-Oct-17 00:58N 39°17' W 076°35'0 0.0
2017-Oct-17 00:25N 39°17' W 076°35'0 0.0
2017-Oct-16 23:58N 39°17' W 076°35'0 0.0
2017-Oct-16 23:28N 39°17' W 076°35'0 0.0
2017-Oct-16 22:55N 39°17' W 076°35'0 0.0
2017-Oct-16 22:28N 39°17' W 076°35'0 0.0
2017-Oct-16 21:58N 39°17' W 076°35'0 0.0
2017-Oct-16 21:26N 39°17' W 076°35'0 0.0
2017-Oct-16 20:58N 39°17' W 076°35'0 0.0
2017-Oct-16 20:28N 39°17' W 076°35'0 0.0
2017-Oct-16 19:58N 39°17' W 076°35'0 0.0
2017-Oct-16 19:28N 39°17' W 076°35'0 0.0
2017-Oct-16 18:58N 39°17' W 076°35'0 0.0
2017-Oct-16 18:28N 39°17' W 076°35'0 0.0
2017-Oct-16 17:58N 39°17' W 076°35'0 0.0
2017-Oct-16 17:19N 39°17' W 076°35'0 0.0
2017-Oct-16 16:58N 39°17' W 076°35'0 0.0
2017-Oct-16 16:25N 39°17' W 076°35'0 0.0
2017-Oct-16 15:55N 39°17' W 076°35'0 0.0
2017-Oct-16 15:28N 39°17' W 076°35'0 0.0
2017-Oct-16 14:55N 39°17' W 076°35'0 0.0
2017-Oct-16 14:25N 39°17' W 076°35'0 0.0
2017-Oct-16 13:28N 39°17' W 076°35'0 0.0
2017-Oct-16 12:58N 39°17' W 076°35'0 0.0
2017-Oct-16 12:28N 39°17' W 076°35'0 0.0
2017-Oct-16 11:58N 39°17' W 076°35'0 0.0
2017-Oct-16 11:25N 39°17' W 076°35'0 0.0
2017-Oct-16 10:58N 39°17' W 076°35'0 0.0
2017-Oct-16 10:28N 39°17' W 076°35'0 0.0
2017-Oct-16 09:58N 39°17' W 076°35'0 0.0
2017-Oct-16 09:25N 39°17' W 076°35'0 0.0
2017-Oct-16 08:55N 39°17' W 076°35'0 0.0
2017-Oct-16 08:16N 39°17' W 076°35'0 0.0
2017-Oct-16 07:58N 39°17' W 076°35'0 0.0
2017-Oct-16 07:28N 39°17' W 076°35'0 0.0
2017-Oct-16 06:55N 39°17' W 076°35'0 0.0
2017-Oct-16 06:28N 39°17' W 076°35'0 0.0
2017-Oct-16 05:58N 39°17' W 076°35'0 0.0
2017-Oct-16 05:28N 39°17' W 076°35'0 0.0
2017-Oct-16 04:52N 39°17' W 076°35'0 0.0
2017-Oct-16 04:28N 39°17' W 076°35'0 0.0
2017-Oct-16 03:58N 39°17' W 076°35'0 0.0
2017-Oct-16 03:19N 39°17' W 076°35'0 0.0
2017-Oct-16 02:55N 39°17' W 076°35'0 0.0
2017-Oct-16 02:25N 39°17' W 076°35'0 0.0
2017-Oct-16 01:58N 39°17' W 076°35'0 0.0
2017-Oct-16 01:28N 39°17' W 076°35'0 0.0
2017-Oct-16 00:58N 39°17' W 076°35'0 0.0
2017-Oct-16 00:25N 39°17' W 076°35'0 0.0
2017-Oct-15 23:58N 39°17' W 076°35'0 0.0
2017-Oct-15 23:28N 39°17' W 076°35'0 0.0
2017-Oct-15 22:58N 39°17' W 076°35'0 0.0
2017-Oct-15 22:28N 39°17' W 076°35'0 0.1
2017-Oct-15 22:00N 39°17' W 076°35'1 1.2
2017-Oct-15 21:19N 39°17' W 076°36'2 6.2
2017-Oct-15 21:00N 39°15' W 076°34'16 0.8
2017-Oct-15 01:02N 39°09' W 076°15'0 0.0
2017-Oct-15 00:53N 39°09' W 076°15'4 0.2
2017-Oct-13 19:53N 39°05' W 076°18'2 5.9
2017-Oct-13 19:29N 39°04' W 076°21'1 1.1
2017-Oct-13 18:59N 39°04' W 076°22'2 3.7
2017-Oct-13 18:30N 39°02' W 076°21'2 3.7
2017-Oct-13 18:00N 39°00' W 076°21'1 1.9
2017-Oct-13 17:30N 38°60' W 076°23'4 7.1
2017-Oct-13 17:00N 38°57' W 076°26'3 4.8
2017-Oct-13 16:29N 38°58' W 076°29'0 0.0
2017-Oct-13 15:56N 38°58' W 076°29'0 0.0
2017-Oct-13 15:29N 38°58' W 076°29'0 0.0
2017-Oct-13 14:59N 38°58' W 076°29'0 0.0
2017-Oct-13 14:29N 38°58' W 076°29'0 0.0
2017-Oct-13 13:59N 38°58' W 076°29'0 0.0
2017-Oct-13 13:29N 38°58' W 076°29'0 0.0
2017-Oct-13 12:59N 38°58' W 076°29'0 0.0
2017-Oct-13 12:29N 38°58' W 076°29'0 0.0
2017-Oct-13 11:59N 38°58' W 076°29'0 0.0
2017-Oct-13 11:29N 38°58' W 076°29'0 0.0
2017-Oct-13 10:59N 38°58' W 076°29'0 0.0
2017-Oct-13 10:29N 38°58' W 076°29'0 0.0
2017-Oct-13 09:59N 38°58' W 076°29'0 0.0
2017-Oct-13 09:29N 38°58' W 076°29'0 0.0
2017-Oct-13 08:59N 38°58' W 076°29'0 0.0
2017-Oct-13 08:29N 38°58' W 076°29'0 0.0
2017-Oct-13 07:59N 38°58' W 076°29'0 0.0
2017-Oct-13 07:29N 38°58' W 076°29'0 0.0
2017-Oct-13 06:59N 38°58' W 076°29'0 0.0
2017-Oct-13 06:26N 38°58' W 076°29'0 0.0
2017-Oct-13 05:59N 38°58' W 076°29'0 0.0
2017-Oct-13 05:29N 38°58' W 076°29'0 0.0
2017-Oct-13 04:59N 38°58' W 076°29'0 0.0
2017-Oct-13 04:29N 38°58' W 076°29'0 0.0
2017-Oct-13 03:59N 38°58' W 076°29'0 0.0
2017-Oct-13 03:29N 38°58' W 076°29'0 0.0
2017-Oct-13 02:59N 38°58' W 076°29'0 0.0
2017-Oct-13 02:29N 38°58' W 076°29'0 0.0
2017-Oct-13 01:59N 38°58' W 076°29'0 0.0
2017-Oct-13 01:29N 38°58' W 076°29'0 0.0
2017-Oct-13 00:59N 38°58' W 076°29'0 0.0
2017-Oct-13 00:29N 38°58' W 076°29'0 0.0
2017-Oct-12 23:59N 38°58' W 076°29'0 0.0
2017-Oct-12 23:29N 38°58' W 076°29'0 0.0
2017-Oct-12 22:59N 38°58' W 076°29'0 0.0
2017-Oct-12 22:29N 38°58' W 076°29'0 0.0
2017-Oct-12 21:59N 38°58' W 076°29'0 0.0
2017-Oct-12 21:29N 38°58' W 076°29'0 0.0
2017-Oct-12 20:56N 38°58' W 076°29'0 0.0
2017-Oct-12 20:26N 38°58' W 076°29'0 0.0
2017-Oct-12 19:59N 38°58' W 076°29'0 0.0
2017-Oct-12 19:29N 38°58' W 076°29'0 0.0
2017-Oct-12 18:56N 38°58' W 076°29'0 0.0
2017-Oct-12 18:29N 38°58' W 076°29'0 0.0
2017-Oct-12 17:59N 38°58' W 076°29'0 0.0
2017-Oct-12 17:29N 38°58' W 076°29'0 0.0
2017-Oct-12 16:59N 38°58' W 076°29'0 0.0
2017-Oct-12 16:29N 38°58' W 076°29'0 0.0
2017-Oct-12 15:59N 38°58' W 076°29'0 0.0
2017-Oct-12 15:29N 38°58' W 076°29'0 0.0
2017-Oct-12 14:59N 38°58' W 076°29'0 0.0
2017-Oct-12 14:29N 38°58' W 076°29'0 0.0
2017-Oct-12 13:59N 38°58' W 076°29'0 0.0
2017-Oct-12 13:29N 38°58' W 076°29'0 0.0
2017-Oct-12 12:59N 38°58' W 076°29'0 0.0
2017-Oct-12 12:29N 38°58' W 076°29'0 0.0
2017-Oct-12 11:53N 38°58' W 076°29'0 0.0
2017-Oct-12 11:29N 38°58' W 076°29'0 0.0
2017-Oct-12 10:59N 38°58' W 076°29'0 0.0
2017-Oct-12 10:29N 38°58' W 076°29'0 0.0
2017-Oct-12 09:59N 38°58' W 076°29'0 0.0
2017-Oct-12 09:29N 38°58' W 076°29'0 0.0
2017-Oct-12 08:59N 38°58' W 076°29'0 0.0
2017-Oct-12 08:29N 38°58' W 076°29'0 0.0
2017-Oct-12 07:59N 38°58' W 076°29'0 0.0
2017-Oct-12 07:29N 38°58' W 076°29'0 0.0
2017-Oct-12 06:59N 38°58' W 076°29'0 0.0
2017-Oct-12 06:29N 38°58' W 076°29'0 0.0
2017-Oct-12 05:59N 38°58' W 076°29'0 0.0
2017-Oct-12 05:29N 38°58' W 076°29'0 0.0
2017-Oct-12 04:59N 38°58' W 076°29'0 0.0
2017-Oct-12 04:29N 38°58' W 076°29'0 0.0
2017-Oct-12 03:59N 38°58' W 076°29'0 0.0
2017-Oct-12 03:29N 38°58' W 076°29'0 0.0
2017-Oct-12 02:59N 38°58' W 076°29'0 0.0
2017-Oct-12 02:29N 38°58' W 076°29'0 0.0
2017-Oct-12 01:59N 38°58' W 076°29'0 0.0
2017-Oct-12 01:29N 38°58' W 076°29'0 0.0
2017-Oct-12 00:59N 38°58' W 076°29'0 0.0
2017-Oct-12 00:29N 38°58' W 076°29'0 0.0
2017-Oct-11 23:59N 38°58' W 076°29'0 0.0
2017-Oct-11 23:29N 38°58' W 076°29'0 0.0
2017-Oct-11 22:59N 38°58' W 076°29'0 0.0
2017-Oct-11 22:29N 38°58' W 076°29'0 0.0
2017-Oct-11 21:59N 38°58' W 076°29'0 0.0
2017-Oct-11 21:29N 38°58' W 076°29'0 0.0
2017-Oct-11 20:59N 38°58' W 076°29'0 0.0
2017-Oct-11 20:29N 38°58' W 076°29'0 0.0
2017-Oct-11 19:59N 38°58' W 076°29'0 0.0
2017-Oct-11 19:29N 38°58' W 076°29'0 0.0
2017-Oct-11 18:59N 38°58' W 076°29'0 0.0
2017-Oct-11 18:29N 38°58' W 076°29'0 0.0
2017-Oct-11 17:59N 38°58' W 076°29'0 0.0
2017-Oct-11 17:29N 38°58' W 076°29'0 0.0
2017-Oct-11 16:59N 38°58' W 076°29'0 0.0
2017-Oct-10 23:59N 38°58' W 076°29'0 0.0
2017-Oct-10 23:29N 38°58' W 076°29'0 0.0
2017-Oct-10 22:59N 38°58' W 076°29'0 0.0
2017-Oct-10 22:29N 38°58' W 076°29'0 0.0
2017-Oct-10 21:59N 38°58' W 076°29'0 0.0
2017-Oct-10 21:29N 38°58' W 076°29'0 0.0
2017-Oct-10 20:59N 38°58' W 076°29'0 0.0
2017-Oct-10 20:29N 38°58' W 076°29'0 0.0
2017-Oct-10 19:59N 38°58' W 076°29'0 0.0
2017-Oct-10 19:29N 38°58' W 076°29'0 0.0
2017-Oct-10 18:59N 38°58' W 076°29'0 0.0
2017-Oct-10 18:29N 38°58' W 076°29'0 0.0
2017-Oct-10 17:59N 38°58' W 076°29'0 0.0
2017-Oct-10 17:29N 38°58' W 076°29'0 0.0
2017-Oct-10 16:59N 38°58' W 076°29'0 0.0
2017-Oct-10 16:29N 38°58' W 076°29'0 0.0
2017-Oct-10 15:59N 38°58' W 076°29'0 0.0
2017-Oct-10 15:29N 38°58' W 076°29'0 0.0
2017-Oct-10 14:59N 38°58' W 076°29'0 0.0
2017-Oct-10 13:59N 38°58' W 076°29'0 0.0
2017-Oct-10 13:29N 38°58' W 076°29'  
Track history (hours):
 
Tides and Currents Weather Stations Pressure Air Temp Water Temp Dewpoint Dewpoint Depression Visibility Wind Speed Wind Dir Waves Ship Positions

Kaskazi

Owner: Delly, Daniel P, Washington, DC. More information available from US FCC via Universal Licensing System.

Last reported at 2017-Oct-20 13:26 UTC. Time now 2017-Oct-20 16:17 UTC.
Position N 39°03' W 076°10'.

Length 10 m.

Type: Sailing vessel. MMSI: 367712980.

Date/timePositionNaut miles runAvg speedWind from/ knotsBaromVisibWave heightAir tempDewpointWater temp
2017-Oct-20 13:26N 39°03' W 076°10'0 0.0
2017-Oct-20 12:08N 39°03' W 076°10'0 0.0
2017-Oct-20 10:53N 39°03' W 076°10'0 0.0
2017-Oct-20 10:14N 39°03' W 076°10'0 0.0
2017-Oct-20 09:56N 39°03' W 076°10'0 0.0
2017-Oct-20 09:29N 39°03' W 076°10'0 0.0
2017-Oct-20 08:59N 39°03' W 076°10'0 0.0
2017-Oct-20 08:26N 39°03' W 076°10'0 0.0
2017-Oct-20 07:56N 39°03' W 076°10'0 0.0
2017-Oct-20 07:20N 39°03' W 076°10'0 0.0
2017-Oct-20 06:59N 39°03' W 076°10'0 0.0
2017-Oct-20 06:29N 39°03' W 076°10'0 0.0
2017-Oct-20 05:56N 39°03' W 076°10'0 0.0
2017-Oct-20 05:26N 39°03' W 076°10'0 0.0
2017-Oct-20 04:59N 39°03' W 076°10'0 0.0
2017-Oct-20 04:26N 39°03' W 076°10'0 0.0
2017-Oct-20 03:53N 39°03' W 076°10'0 0.0
2017-Oct-20 03:23N 39°03' W 076°10'0 0.0
2017-Oct-20 02:59N 39°03' W 076°10'0 0.0
2017-Oct-20 02:29N 39°03' W 076°10'0 0.0
2017-Oct-20 01:56N 39°03' W 076°10'18 1.9
2017-Oct-19 16:39N 39°21' W 076°10'1 8.5
2017-Oct-19 16:29N 39°22' W 076°09'3 5.3
2017-Oct-19 15:59N 39°23' W 076°05'4 7.8
2017-Oct-19 15:30N 39°23' W 076°00'3 6.5
2017-Oct-19 15:00N 39°22' W 075°56'2 1.2
2017-Oct-19 13:14N 39°22' W 075°53'0 0.0
2017-Oct-19 12:56N 39°22' W 075°53'0 0.0
2017-Oct-19 12:29N 39°22' W 075°53'0 0.0
2017-Oct-19 11:53N 39°22' W 075°53'0 0.0
2017-Oct-19 11:26N 39°22' W 075°53'0 0.0
2017-Oct-19 10:59N 39°22' W 075°53'0 0.0
2017-Oct-19 10:23N 39°22' W 075°53'0 0.0
2017-Oct-19 09:56N 39°22' W 075°53'0 0.0
2017-Oct-19 09:29N 39°22' W 075°53'0 0.0
2017-Oct-19 08:56N 39°22' W 075°53'0 0.0
2017-Oct-19 08:29N 39°22' W 075°53'0 0.0
2017-Oct-19 05:29N 39°22' W 075°53'0 0.0
2017-Oct-19 04:53N 39°22' W 075°53'0 0.0
2017-Oct-19 02:44N 39°22' W 075°53'0 0.0
2017-Oct-19 01:35N 39°22' W 075°53'0 0.0
2017-Oct-19 01:26N 39°22' W 075°53'0 0.0
2017-Oct-19 00:59N 39°22' W 075°53'0 0.0
2017-Oct-19 00:26N 39°22' W 075°53'0 0.0
2017-Oct-18 23:59N 39°22' W 075°53'0 0.0
2017-Oct-18 23:29N 39°22' W 075°53'0 0.0
2017-Oct-18 22:59N 39°22' W 075°53'0 0.0
2017-Oct-18 22:29N 39°22' W 075°53'0 0.0
2017-Oct-18 21:59N 39°22' W 075°53'0 0.0
2017-Oct-18 21:29N 39°22' W 075°53'0 0.0
2017-Oct-18 20:56N 39°22' W 075°53'0 0.0
2017-Oct-18 20:29N 39°22' W 075°53'0 0.0
2017-Oct-18 19:56N 39°22' W 075°53'0 0.0
2017-Oct-18 18:53N 39°22' W 075°53'0 0.0
2017-Oct-18 18:29N 39°22' W 075°53'0 0.0
2017-Oct-18 17:44N 39°22' W 075°53'0 0.0
2017-Oct-18 15:26N 39°22' W 075°53'0 0.0
2017-Oct-18 14:56N 39°22' W 075°53'0 0.0
2017-Oct-18 13:59N 39°22' W 075°53'0 0.0
2017-Oct-18 13:29N 39°22' W 075°53'0 0.0
2017-Oct-18 12:59N 39°22' W 075°53'0 0.0
2017-Oct-18 12:29N 39°22' W 075°53'0 0.0
2017-Oct-18 11:53N 39°22' W 075°53'0 0.0
2017-Oct-18 11:26N 39°22' W 075°53'0 0.0
2017-Oct-18 10:59N 39°22' W 075°53'0 0.0
2017-Oct-18 10:29N 39°22' W 075°53'0 0.0
2017-Oct-18 09:56N 39°22' W 075°53'0 0.0
2017-Oct-18 09:29N 39°22' W 075°53'0 0.0
2017-Oct-18 08:56N 39°22' W 075°53'0 0.0
2017-Oct-18 08:23N 39°22' W 075°53'0 0.0
2017-Oct-18 07:59N 39°22' W 075°53'0 0.0
2017-Oct-18 06:05N 39°22' W 075°53'0 0.0
2017-Oct-18 05:53N 39°22' W 075°53'0 0.0
2017-Oct-18 05:29N 39°22' W 075°53'0 0.0
2017-Oct-18 04:59N 39°22' W 075°53'0 0.0
2017-Oct-18 04:26N 39°22' W 075°53'0 0.0
2017-Oct-18 03:59N 39°22' W 075°53'0 0.0
2017-Oct-18 03:26N 39°22' W 075°53'0 0.0
2017-Oct-18 02:59N 39°22' W 075°53'0 0.0
2017-Oct-18 02:29N 39°22' W 075°53'0 0.0
2017-Oct-18 01:50N 39°22' W 075°53'0 0.0
2017-Oct-18 01:26N 39°22' W 075°53'0 0.0
2017-Oct-18 00:56N 39°22' W 075°53'0 0.0
2017-Oct-18 00:29N 39°22' W 075°53'0 0.0
2017-Oct-17 23:53N 39°22' W 075°53'0 0.0
2017-Oct-17 23:29N 39°22' W 075°53'0 0.0
2017-Oct-17 22:59N 39°22' W 075°53'0 0.0
2017-Oct-17 22:26N 39°22' W 075°53'0 0.0
2017-Oct-17 21:53N 39°22' W 075°53'0 0.0
2017-Oct-17 21:25N 39°22' W 075°53'2 4.7
2017-Oct-17 20:57N 39°22' W 075°56'3 5.8
2017-Oct-17 20:30N 39°23' W 075°60'25 7.3
2017-Oct-17 17:07N 39°11' W 076°28'1 7.4
2017-Oct-17 17:00N 39°12' W 076°29'4 7.4
2017-Oct-17 16:29N 39°14' W 076°32'3 6.8
2017-Oct-17 16:00N 39°17' W 076°35'1 1.9
2017-Oct-17 15:19N 39°17' W 076°37'1 3.6
2017-Oct-17 15:00N 39°17' W 076°35'0 0.5
2017-Oct-17 14:28N 39°17' W 076°35'0 0.0
2017-Oct-17 13:58N 39°17' W 076°35'0 0.0
2017-Oct-17 13:28N 39°17' W 076°35'0 0.0
2017-Oct-17 12:58N 39°17' W 076°35'0 0.0
2017-Oct-17 12:28N 39°17' W 076°35'0 0.0
2017-Oct-17 11:58N 39°17' W 076°35'0 0.0
2017-Oct-17 11:28N 39°17' W 076°35'0 0.0
2017-Oct-17 10:55N 39°17' W 076°35'0 0.0
2017-Oct-17 10:28N 39°17' W 076°35'0 0.0
2017-Oct-17 09:58N 39°17' W 076°35'0 0.0
2017-Oct-17 09:28N 39°17' W 076°35'0 0.0
2017-Oct-17 08:58N 39°17' W 076°35'0 0.0
2017-Oct-17 08:28N 39°17' W 076°35'0 0.0
2017-Oct-17 07:58N 39°17' W 076°35'0 0.0
2017-Oct-17 07:25N 39°17' W 076°35'0 0.0
2017-Oct-17 06:58N 39°17' W 076°35'0 0.0
2017-Oct-17 06:28N 39°17' W 076°35'0 0.0
2017-Oct-17 05:55N 39°17' W 076°35'0 0.0
2017-Oct-17 05:28N 39°17' W 076°35'0 0.0
2017-Oct-17 04:58N 39°17' W 076°35'0 0.0
2017-Oct-17 04:25N 39°17' W 076°35'0 0.0
2017-Oct-17 03:58N 39°17' W 076°35'0 0.0
2017-Oct-17 03:16N 39°17' W 076°35'0 0.0
2017-Oct-17 02:58N 39°17' W 076°35'0 0.0
2017-Oct-17 02:28N 39°17' W 076°35'0 0.0
2017-Oct-17 01:52N 39°17' W 076°35'0 0.0
2017-Oct-17 01:28N 39°17' W 076°35'0 0.0
2017-Oct-17 00:58N 39°17' W 076°35'0 0.0
2017-Oct-17 00:25N 39°17' W 076°35'0 0.0
2017-Oct-16 23:58N 39°17' W 076°35'0 0.0
2017-Oct-16 23:28N 39°17' W 076°35'0 0.0
2017-Oct-16 22:55N 39°17' W 076°35'0 0.0
2017-Oct-16 22:28N 39°17' W 076°35'0 0.0
2017-Oct-16 21:58N 39°17' W 076°35'0 0.0
2017-Oct-16 21:26N 39°17' W 076°35'0 0.0
2017-Oct-16 20:58N 39°17' W 076°35'0 0.0
2017-Oct-16 20:28N 39°17' W 076°35'0 0.0
2017-Oct-16 19:58N 39°17' W 076°35'0 0.0
2017-Oct-16 19:28N 39°17' W 076°35'0 0.0
2017-Oct-16 18:58N 39°17' W 076°35'0 0.0
2017-Oct-16 18:28N 39°17' W 076°35'0 0.0
2017-Oct-16 17:58N 39°17' W 076°35'0 0.0
2017-Oct-16 17:19N 39°17' W 076°35'0 0.0
2017-Oct-16 16:58N 39°17' W 076°35'0 0.0
2017-Oct-16 16:25N 39°17' W 076°35'0 0.0
2017-Oct-16 15:55N 39°17' W 076°35'0 0.0
2017-Oct-16 15:28N 39°17' W 076°35'0 0.0
2017-Oct-16 14:55N 39°17' W 076°35'0 0.0
2017-Oct-16 14:25N 39°17' W 076°35'0 0.0
2017-Oct-16 13:28N 39°17' W 076°35'0 0.0
2017-Oct-16 12:58N 39°17' W 076°35'0 0.0
2017-Oct-16 12:28N 39°17' W 076°35'0 0.0
2017-Oct-16 11:58N 39°17' W 076°35'0 0.0
2017-Oct-16 11:25N 39°17' W 076°35'0 0.0
2017-Oct-16 10:58N 39°17' W 076°35'0 0.0
2017-Oct-16 10:28N 39°17' W 076°35'0 0.0
2017-Oct-16 09:58N 39°17' W 076°35'0 0.0
2017-Oct-16 09:25N 39°17' W 076°35'0 0.0
2017-Oct-16 08:55N 39°17' W 076°35'0 0.0
2017-Oct-16 08:16N 39°17' W 076°35'0 0.0
2017-Oct-16 07:58N 39°17' W 076°35'0 0.0
2017-Oct-16 07:28N 39°17' W 076°35'0 0.0
2017-Oct-16 06:55N 39°17' W 076°35'0 0.0
2017-Oct-16 06:28N 39°17' W 076°35'0 0.0
2017-Oct-16 05:58N 39°17' W 076°35'0 0.0
2017-Oct-16 05:28N 39°17' W 076°35'0 0.0
2017-Oct-16 04:52N 39°17' W 076°35'0 0.0
2017-Oct-16 04:28N 39°17' W 076°35'0 0.0
2017-Oct-16 03:58N 39°17' W 076°35'0 0.0
2017-Oct-16 03:19N 39°17' W 076°35'0 0.0
2017-Oct-16 02:55N 39°17' W 076°35'0 0.0
2017-Oct-16 02:25N 39°17' W 076°35'0 0.0
2017-Oct-16 01:58N 39°17' W 076°35'0 0.0
2017-Oct-16 01:28N 39°17' W 076°35'0 0.0
2017-Oct-16 00:58N 39°17' W 076°35'0 0.0
2017-Oct-16 00:25N 39°17' W 076°35'0 0.0
2017-Oct-15 23:58N 39°17' W 076°35'0 0.0
2017-Oct-15 23:28N 39°17' W 076°35'0 0.0
2017-Oct-15 22:58N 39°17' W 076°35'0 0.0
2017-Oct-15 22:28N 39°17' W 076°35'0 0.1
2017-Oct-15 22:00N 39°17' W 076°35'1 1.2
2017-Oct-15 21:19N 39°17' W 076°36'2 6.2
2017-Oct-15 21:00N 39°15' W 076°34'16 0.8
2017-Oct-15 01:02N 39°09' W 076°15'0 0.0
2017-Oct-15 00:53N 39°09' W 076°15'4 0.2
2017-Oct-13 19:53N 39°05' W 076°18'2 5.9
2017-Oct-13 19:29N 39°04' W 076°21'1 1.1
2017-Oct-13 18:59N 39°04' W 076°22'2 3.7
2017-Oct-13 18:30N 39°02' W 076°21'2 3.7
2017-Oct-13 18:00N 39°00' W 076°21'1 1.9
2017-Oct-13 17:30N 38°60' W 076°23'4 7.1
2017-Oct-13 17:00N 38°57' W 076°26'3 4.8
2017-Oct-13 16:29N 38°58' W 076°29'0 0.0
2017-Oct-13 15:56N 38°58' W 076°29'0 0.0
2017-Oct-13 15:29N 38°58' W 076°29'0 0.0
2017-Oct-13 14:59N 38°58' W 076°29'0 0.0
2017-Oct-13 14:29N 38°58' W 076°29'0 0.0
2017-Oct-13 13:59N 38°58' W 076°29'0 0.0
2017-Oct-13 13:29N 38°58' W 076°29'0 0.0
2017-Oct-13 12:59N 38°58' W 076°29'0 0.0
2017-Oct-13 12:29N 38°58' W 076°29'0 0.0
2017-Oct-13 11:59N 38°58' W 076°29'0 0.0
2017-Oct-13 11:29N 38°58' W 076°29'0 0.0
2017-Oct-13 10:59N 38°58' W 076°29'0 0.0
2017-Oct-13 10:29N 38°58' W 076°29'0 0.0
2017-Oct-13 09:59N 38°58' W 076°29'0 0.0
2017-Oct-13 09:29N 38°58' W 076°29'0 0.0
2017-Oct-13 08:59N 38°58' W 076°29'0 0.0
2017-Oct-13 08:29N 38°58' W 076°29'0 0.0
2017-Oct-13 07:59N 38°58' W 076°29'0 0.0
2017-Oct-13 07:29N 38°58' W 076°29'0 0.0
2017-Oct-13 06:59N 38°58' W 076°29'0 0.0
2017-Oct-13 06:26N 38°58' W 076°29'0 0.0
2017-Oct-13 05:59N 38°58' W 076°29'0 0.0
2017-Oct-13 05:29N 38°58' W 076°29'0 0.0
2017-Oct-13 04:59N 38°58' W 076°29'0 0.0
2017-Oct-13 04:29N 38°58' W 076°29'0 0.0
2017-Oct-13 03:59N 38°58' W 076°29'0 0.0
2017-Oct-13 03:29N 38°58' W 076°29'0 0.0
2017-Oct-13 02:59N 38°58' W 076°29'0 0.0
2017-Oct-13 02:29N 38°58' W 076°29'0 0.0
2017-Oct-13 01:59N 38°58' W 076°29'0 0.0
2017-Oct-13 01:29N 38°58' W 076°29'0 0.0
2017-Oct-13 00:59N 38°58' W 076°29'0 0.0
2017-Oct-13 00:29N 38°58' W 076°29'0 0.0
2017-Oct-12 23:59N 38°58' W 076°29'0 0.0
2017-Oct-12 23:29N 38°58' W 076°29'0 0.0
2017-Oct-12 22:59N 38°58' W 076°29'0 0.0
2017-Oct-12 22:29N 38°58' W 076°29'0 0.0
2017-Oct-12 21:59N 38°58' W 076°29'0 0.0
2017-Oct-12 21:29N 38°58' W 076°29'0 0.0
2017-Oct-12 20:56N 38°58' W 076°29'0 0.0
2017-Oct-12 20:26N 38°58' W 076°29'0 0.0
2017-Oct-12 19:59N 38°58' W 076°29'0 0.0
2017-Oct-12 19:29N 38°58' W 076°29'0 0.0
2017-Oct-12 18:56N 38°58' W 076°29'0 0.0
2017-Oct-12 18:29N 38°58' W 076°29'0 0.0
2017-Oct-12 17:59N 38°58' W 076°29'0 0.0
2017-Oct-12 17:29N 38°58' W 076°29'0 0.0
2017-Oct-12 16:59N 38°58' W 076°29'0 0.0
2017-Oct-12 16:29N 38°58' W 076°29'0 0.0
2017-Oct-12 15:59N 38°58' W 076°29'0 0.0
2017-Oct-12 15:29N 38°58' W 076°29'0 0.0
2017-Oct-12 14:59N 38°58' W 076°29'0 0.0
2017-Oct-12 14:29N 38°58' W 076°29'0 0.0
2017-Oct-12 13:59N 38°58' W 076°29'0 0.0
2017-Oct-12 13:29N 38°58' W 076°29'0 0.0
2017-Oct-12 12:59N 38°58' W 076°29'0 0.0
2017-Oct-12 12:29N 38°58' W 076°29'0 0.0
2017-Oct-12 11:53N 38°58' W 076°29'0 0.0
2017-Oct-12 11:29N 38°58' W 076°29'0 0.0
2017-Oct-12 10:59N 38°58' W 076°29'0 0.0
2017-Oct-12 10:29N 38°58' W 076°29'0 0.0
2017-Oct-12 09:59N 38°58' W 076°29'0 0.0
2017-Oct-12 09:29N 38°58' W 076°29'0 0.0
2017-Oct-12 08:59N 38°58' W 076°29'0 0.0
2017-Oct-12 08:29N 38°58' W 076°29'0 0.0
2017-Oct-12 07:59N 38°58' W 076°29'0 0.0
2017-Oct-12 07:29N 38°58' W 076°29'0 0.0
2017-Oct-12 06:59N 38°58' W 076°29'0 0.0
2017-Oct-12 06:29N 38°58' W 076°29'0 0.0
2017-Oct-12 05:59N 38°58' W 076°29'0 0.0
2017-Oct-12 05:29N 38°58' W 076°29'0 0.0
2017-Oct-12 04:59N 38°58' W 076°29'0 0.0
2017-Oct-12 04:29N 38°58' W 076°29'0 0.0
2017-Oct-12 03:59N 38°58' W 076°29'0 0.0
2017-Oct-12 03:29N 38°58' W 076°29'0 0.0
2017-Oct-12 02:59N 38°58' W 076°29'0 0.0
2017-Oct-12 02:29N 38°58' W 076°29'0 0.0
2017-Oct-12 01:59N 38°58' W 076°29'0 0.0
2017-Oct-12 01:29N 38°58' W 076°29'0 0.0
2017-Oct-12 00:59N 38°58' W 076°29'0 0.0
2017-Oct-12 00:29N 38°58' W 076°29'0 0.0
2017-Oct-11 23:59N 38°58' W 076°29'0 0.0
2017-Oct-11 23:29N 38°58' W 076°29'0 0.0
2017-Oct-11 22:59N 38°58' W 076°29'0 0.0
2017-Oct-11 22:29N 38°58' W 076°29'0 0.0
2017-Oct-11 21:59N 38°58' W 076°29'0 0.0
2017-Oct-11 21:29N 38°58' W 076°29'0 0.0
2017-Oct-11 20:59N 38°58' W 076°29'0 0.0
2017-Oct-11 20:29N 38°58' W 076°29'0 0.0
2017-Oct-11 19:59N 38°58' W 076°29'0 0.0
2017-Oct-11 19:29N 38°58' W 076°29'0 0.0
2017-Oct-11 18:59N 38°58' W 076°29'0 0.0
2017-Oct-11 18:29N 38°58' W 076°29'0 0.0
2017-Oct-11 17:59N 38°58' W 076°29'0 0.0
2017-Oct-11 17:29N 38°58' W 076°29'0 0.0
2017-Oct-11 16:59N 38°58' W 076°29'0 0.0
2017-Oct-10 23:59N 38°58' W 076°29'0 0.0
2017-Oct-10 23:29N 38°58' W 076°29'0 0.0
2017-Oct-10 22:59N 38°58' W 076°29'0 0.0
2017-Oct-10 22:29N 38°58' W 076°29'0 0.0
2017-Oct-10 21:59N 38°58' W 076°29'0 0.0
2017-Oct-10 21:29N 38°58' W 076°29'0 0.0
2017-Oct-10 20:59N 38°58' W 076°29'0 0.0
2017-Oct-10 20:29N 38°58' W 076°29'0 0.0
2017-Oct-10 19:59N 38°58' W 076°29'0 0.0
2017-Oct-10 19:29N 38°58' W 076°29'0 0.0
2017-Oct-10 18:59N 38°58' W 076°29'0 0.0
2017-Oct-10 18:29N 38°58' W 076°29'0 0.0
2017-Oct-10 17:59N 38°58' W 076°29'0 0.0
2017-Oct-10 17:29N 38°58' W 076°29'0 0.0
2017-Oct-10 16:59N 38°58' W 076°29'0 0.0
2017-Oct-10 16:29N 38°58' W 076°29'0 0.0
2017-Oct-10 15:59N 38°58' W 076°29'0 0.0
2017-Oct-10 15:29N 38°58' W 076°29'0 0.0
2017-Oct-10 14:59N 38°58' W 076°29'0 0.0
2017-Oct-10 13:59N 38°58' W 076°29'0 0.0
2017-Oct-10 13:29N 38°58' W 076°29'  

Dump ship's entire track history